createdAt,value
2022-10-04T00:00:12.366Z,96443.72
2022-10-04T00:05:15.063Z,96437.78
2022-10-04T00:10:18.381Z,96434.94
2022-10-04T00:15:21.563Z,96443.22
2022-10-04T00:20:24.311Z,96425.53
2022-10-04T00:25:28.080Z,96422.88
2022-10-04T00:30:30.915Z,96418.94
2022-10-04T00:35:33.641Z,96419.19
2022-10-04T00:40:36.534Z,96433.13
2022-10-04T00:45:39.222Z,96406.09
2022-10-04T00:50:41.906Z,96411.56
2022-10-04T00:55:44.691Z,96405.41
2022-10-04T01:00:49.413Z,96407.81
2022-10-04T01:05:52.154Z,96405.13
2022-10-04T01:10:54.873Z,96403.47
2022-10-04T01:15:58.185Z,96391.84
2022-10-04T01:21:01.029Z,96396.00
2022-10-04T01:26:04.096Z,96392.91
2022-10-04T01:31:07.118Z,96375.66
2022-10-04T01:36:09.890Z,96383.41
2022-10-04T01:41:14.621Z,96390.34
2022-10-04T01:46:17.383Z,96379.41
2022-10-04T01:51:20.238Z,96366.28
2022-10-04T01:56:22.899Z,96368.53
2022-10-04T02:01:26.652Z,96355.28
2022-10-04T02:06:29.583Z,96346.91
2022-10-04T02:11:32.585Z,96343.56
2022-10-04T02:16:35.397Z,96352.72
2022-10-04T02:21:38.869Z,96350.63
2022-10-04T02:26:41.644Z,96343.72
2022-10-04T02:32:02.304Z,96342.13
2022-10-04T02:37:05.167Z,96342.94
2022-10-04T02:42:08.312Z,96354.50
2022-10-04T02:47:11.003Z,96356.31
2022-10-04T02:52:16.310Z,96349.78
2022-10-04T02:57:19.307Z,96351.16
2022-10-04T03:02:29.107Z,96349.38
2022-10-04T03:07:33.051Z,96341.41
2022-10-04T03:12:36.160Z,96340.06
2022-10-04T03:17:42.329Z,96346.63
2022-10-04T03:22:47.003Z,96338.78
2022-10-04T03:27:50.310Z,96337.25
2022-10-04T03:32:53.058Z,96323.09
2022-10-04T03:37:56.877Z,96332.19
2022-10-04T03:43:00.465Z,96338.88
2022-10-04T03:48:03.197Z,96336.34
2022-10-04T03:53:06.067Z,96334.28
2022-10-04T03:58:09.343Z,96342.75
2022-10-04T04:03:12.133Z,96347.22
2022-10-04T04:08:15.321Z,96342.44
2022-10-04T04:13:18.122Z,96341.09
2022-10-04T04:18:20.804Z,96333.41
2022-10-04T04:23:23.993Z,96331.22
2022-10-04T04:28:27.129Z,96337.34
2022-10-04T04:33:30.119Z,96343.19
2022-10-04T04:38:33.171Z,96348.22
2022-10-04T04:43:36.354Z,96344.38
2022-10-04T04:48:39.048Z,96341.56
2022-10-04T04:53:41.938Z,96336.69
2022-10-04T04:58:46.243Z,96343.25
2022-10-04T05:03:49.486Z,96333.06
2022-10-04T05:08:52.185Z,96330.53
2022-10-04T05:13:57.116Z,96349.25
2022-10-04T05:18:59.845Z,96347.19
2022-10-04T05:24:02.710Z,96341.97
2022-10-04T05:29:05.561Z,96344.03
2022-10-04T05:34:08.422Z,96340.94
2022-10-04T05:39:11.287Z,96338.34
2022-10-04T05:44:14.301Z,96331.94
2022-10-04T05:49:19.512Z,96325.38
2022-10-04T05:54:22.641Z,96326.78
2022-10-04T05:59:25.539Z,96333.63
2022-10-04T06:04:28.436Z,96338.44
2022-10-04T06:09:31.235Z,96360.00
2022-10-04T06:14:34.052Z,96347.97
2022-10-04T06:19:37.383Z,96327.22
2022-10-04T06:24:40.237Z,96332.66
2022-10-04T06:29:43.020Z,96328.56
2022-10-04T06:34:45.678Z,96341.25
2022-10-04T06:39:49.308Z,96351.56
2022-10-04T06:44:52.060Z,96342.41
2022-10-04T06:49:54.857Z,96335.63
2022-10-04T06:54:57.591Z,96349.81
2022-10-04T07:00:00.279Z,96338.00
2022-10-04T07:05:12.991Z,96318.09
2022-10-04T07:10:16.822Z,96309.44
2022-10-04T07:15:19.502Z,96311.44
2022-10-04T07:20:22.527Z,96309.91
2022-10-04T07:25:25.217Z,96321.88
2022-10-04T07:30:32.671Z,96331.72
2022-10-04T07:35:35.398Z,96330.06
2022-10-04T07:40:38.150Z,96332.09
2022-10-04T07:45:41.264Z,96334.31
2022-10-04T07:50:44.402Z,96331.69
2022-10-04T07:55:47.669Z,96349.53
2022-10-04T08:00:50.334Z,96357.13
2022-10-04T08:05:53.049Z,96354.41
2022-10-04T08:10:57.511Z,96364.38
2022-10-04T08:16:01.343Z,96350.44
2022-10-04T08:21:04.257Z,96359.22
2022-10-04T08:26:07.194Z,96351.00
2022-10-04T08:31:10.307Z,96350.25
2022-10-04T08:36:17.277Z,96353.09
2022-10-04T08:41:21.125Z,96359.66
2022-10-04T08:46:24.032Z,96350.09
2022-10-04T08:51:26.817Z,96344.94
2022-10-04T08:56:29.762Z,96347.16
2022-10-04T09:01:32.722Z,96332.88
2022-10-04T09:06:36.355Z,96324.66
2022-10-04T09:11:41.475Z,96331.91
2022-10-04T09:16:44.659Z,96326.69
2022-10-04T09:21:48.327Z,96338.59
2022-10-04T09:26:51.246Z,96334.13
2022-10-04T09:31:54.082Z,96335.78
2022-10-04T09:36:58.260Z,96333.44
2022-10-04T09:42:01.101Z,96319.59
2022-10-04T09:47:03.931Z,96314.78
2022-10-04T09:52:06.752Z,96305.47
2022-10-04T09:57:09.585Z,96320.91
2022-10-04T10:02:13.357Z,96313.56
2022-10-04T10:07:16.369Z,96330.88
2022-10-04T10:12:36.731Z,96327.50
2022-10-04T10:17:40.366Z,96316.19
2022-10-04T10:22:43.141Z,96295.56
2022-10-04T10:27:46.090Z,96315.81
2022-10-04T10:32:49.209Z,96318.09
2022-10-04T10:37:52.582Z,96334.88
2022-10-04T10:42:57.462Z,96329.94
2022-10-04T10:48:01.622Z,96335.59
2022-10-04T10:53:04.917Z,96337.22
2022-10-04T10:58:07.596Z,96333.19
2022-10-04T11:03:13.477Z,96328.44
2022-10-04T11:08:16.885Z,96327.41
2022-10-04T11:13:21.355Z,96320.78
2022-10-04T11:18:24.066Z,96317.56
2022-10-04T11:23:26.773Z,96308.94
2022-10-04T11:28:29.604Z,96315.31
2022-10-04T11:33:32.380Z,96317.66
2022-10-04T11:38:35.652Z,96305.22
2022-10-04T11:43:38.489Z,96298.97
2022-10-04T11:48:41.770Z,96302.41
2022-10-04T11:53:44.670Z,96305.50
2022-10-04T11:58:47.580Z,96302.00
2022-10-04T12:03:50.423Z,96300.91
2022-10-04T12:08:53.888Z,96286.69
2022-10-04T12:13:57.055Z,96272.34
2022-10-04T12:19:00.091Z,96273.09
2022-10-04T12:24:04.542Z,96262.50
2022-10-04T12:29:07.284Z,96257.94
2022-10-04T12:34:14.780Z,96259.13
2022-10-04T12:39:17.808Z,96252.00
2022-10-04T12:44:20.529Z,96264.91
2022-10-04T12:49:33.329Z,96255.50
2022-10-04T12:54:36.163Z,96265.00
2022-10-04T12:59:39.001Z,96258.31
2022-10-04T13:04:41.740Z,96253.66
2022-10-04T13:09:55.297Z,96244.22
2022-10-04T13:15:07.506Z,96240.81
2022-10-04T13:20:10.825Z,96238.56
2022-10-04T13:25:14.192Z,96237.44
2022-10-04T13:30:17.030Z,96238.78
2022-10-04T13:35:21.517Z,96246.31
2022-10-04T13:40:24.767Z,96238.19
2022-10-04T13:45:29.253Z,96233.69
2022-10-04T13:50:32.153Z,96240.16
2022-10-04T13:55:52.812Z,96256.16
2022-10-04T14:00:55.717Z,96248.22
2022-10-04T14:05:58.440Z,96252.09
2022-10-04T14:11:01.268Z,96253.59
2022-10-04T14:16:04.354Z,96250.09
2022-10-04T14:21:07.221Z,96249.03
2022-10-04T14:26:10.197Z,96242.72
2022-10-04T14:31:20.396Z,96240.88
2022-10-04T14:36:23.480Z,96250.94
2022-10-04T14:41:27.924Z,96232.69
2022-10-04T14:46:30.820Z,96236.75
2022-10-04T14:51:34.040Z,96242.59
2022-10-04T14:56:36.817Z,96245.06
2022-10-04T15:01:39.791Z,96246.28
2022-10-04T15:06:43.482Z,96253.28
2022-10-04T15:12:07.973Z,96249.97
2022-10-04T15:17:11.985Z,96246.53
2022-10-04T15:22:15.267Z,96248.41
2022-10-04T15:27:18.187Z,96252.84
2022-10-04T15:32:21.090Z,96256.47
2022-10-04T15:37:25.775Z,96249.22
2022-10-04T15:42:29.406Z,96258.19
2022-10-04T15:47:32.250Z,96255.03
2022-10-04T15:52:35.031Z,96245.69
2022-10-04T15:57:37.732Z,96241.50
2022-10-04T16:02:41.008Z,96250.25
2022-10-04T16:07:44.137Z,96247.00
2022-10-04T16:12:47.053Z,96243.94
2022-10-04T16:17:49.987Z,96245.69
2022-10-04T16:22:56.569Z,96241.97
2022-10-04T16:28:05.774Z,96246.66
2022-10-04T16:33:08.862Z,96247.00
2022-10-04T16:38:13.179Z,96248.16
2022-10-04T16:43:16.029Z,96238.22
2022-10-04T16:48:18.818Z,96247.41
2022-10-04T16:53:21.482Z,96253.66
2022-10-04T16:58:24.218Z,96251.53
2022-10-04T17:03:27.166Z,96249.88
2022-10-04T17:08:29.880Z,96242.06
2022-10-04T17:13:33.793Z,96250.94
2022-10-04T17:18:36.937Z,96246.59
2022-10-04T17:23:40.226Z,96252.22
2022-10-04T17:28:42.933Z,96264.84
2022-10-04T17:33:45.980Z,96264.22
2022-10-04T17:38:49.257Z,96265.50
2022-10-04T17:43:51.969Z,96268.16
2022-10-04T17:49:14.299Z,96279.69
2022-10-04T17:54:39.938Z,96284.44
2022-10-04T17:59:42.649Z,96279.63
2022-10-04T18:04:45.642Z,96289.44
2022-10-04T18:09:48.414Z,96280.19
2022-10-04T18:14:53.865Z,96285.69
2022-10-04T18:19:56.823Z,96291.28
2022-10-04T18:24:59.617Z,96296.44
2022-10-04T18:30:02.489Z,96297.94
2022-10-04T18:35:07.588Z,96287.75
2022-10-04T18:40:10.675Z,96299.50
2022-10-04T18:45:14.428Z,96294.72
2022-10-04T18:50:17.882Z,96294.50
2022-10-04T18:55:21.204Z,96304.59
2022-10-04T19:00:53.350Z,96296.97
2022-10-04T19:06:03.581Z,96306.81
2022-10-04T19:11:09.832Z,96300.22
2022-10-04T19:16:13.938Z,96305.75
2022-10-04T19:21:16.789Z,96313.38
2022-10-04T19:26:32.055Z,96316.09
2022-10-04T19:31:35.910Z,96323.81
2022-10-04T19:36:39.364Z,96333.59
2022-10-04T19:41:42.403Z,96334.03
2022-10-04T19:46:45.840Z,96323.59
2022-10-04T19:51:51.334Z,96315.88
2022-10-04T19:56:54.377Z,96315.81
2022-10-04T20:01:57.598Z,96325.38
2022-10-04T20:07:00.622Z,96333.34
2022-10-04T20:12:03.408Z,96332.44
2022-10-04T20:17:06.318Z,96319.75
2022-10-04T20:22:10.216Z,96322.91
2022-10-04T20:27:14.315Z,96325.78
2022-10-04T20:32:17.097Z,96328.53
2022-10-04T20:37:21.600Z,96330.66
2022-10-04T20:42:25.435Z,96329.69
2022-10-04T20:47:29.179Z,96322.03
2022-10-04T20:52:32.089Z,96321.38
2022-10-04T20:57:38.461Z,96333.09
2022-10-04T21:02:43.295Z,96338.97
2022-10-04T21:07:46.055Z,96338.88
2022-10-04T21:12:50.020Z,96354.28
2022-10-04T21:17:52.820Z,96352.97
2022-10-04T21:22:55.790Z,96351.75
2022-10-04T21:27:58.663Z,96359.81
2022-10-04T21:33:04.558Z,96360.69
2022-10-04T21:38:07.453Z,96356.53
2022-10-04T21:43:10.771Z,96365.88
2022-10-04T21:48:13.510Z,96371.97
2022-10-04T21:53:16.172Z,96370.91
2022-10-04T21:58:18.932Z,96378.69
2022-10-04T22:03:21.965Z,96381.53
2022-10-04T22:08:24.684Z,96374.31
2022-10-04T22:13:27.755Z,96375.25
2022-10-04T22:18:30.518Z,96364.38
2022-10-04T22:23:38.163Z,96367.03
2022-10-04T22:28:40.981Z,96361.38
2022-10-04T22:33:43.685Z,96364.38
2022-10-04T22:38:46.370Z,96368.09
2022-10-04T22:43:49.305Z,96355.69
2022-10-04T22:48:52.051Z,96362.09
2022-10-04T22:53:55.211Z,96364.09
2022-10-04T22:58:58.376Z,96376.47
2022-10-04T23:04:01.884Z,96375.31
2022-10-04T23:09:04.747Z,96373.09
2022-10-04T23:14:07.565Z,96382.88
2022-10-04T23:19:10.376Z,96378.25
2022-10-04T23:24:14.534Z,96380.84
2022-10-04T23:29:17.803Z,96379.59
2022-10-04T23:34:21.017Z,96381.56
2022-10-04T23:39:23.993Z,96383.22
2022-10-04T23:44:27.112Z,96381.94
2022-10-04T23:49:29.811Z,96385.78
2022-10-04T23:54:32.512Z,96383.59
2022-10-04T23:59:35.452Z,96381.03
